createdAt,value
2018-08-22T00:00:10.015Z,86.25
2018-08-22T00:01:10.020Z,86.44
2018-08-22T00:02:10.016Z,86.34
2018-08-22T00:03:10.018Z,86.05
2018-08-22T00:04:10.018Z,86.34
2018-08-22T00:05:10.019Z,86.34
2018-08-22T00:06:10.022Z,86.15
2018-08-22T00:07:10.022Z,86.25
2018-08-22T00:08:10.021Z,86.05
2018-08-22T00:09:10.023Z,86.25
2018-08-22T00:10:10.023Z,86.15
2018-08-22T00:11:10.024Z,86.25
2018-08-22T00:12:10.022Z,86.05
2018-08-22T00:13:10.027Z,86.25
2018-08-22T00:14:10.023Z,86.15
2018-08-22T00:15:10.080Z,86.34
2018-08-22T00:16:10.026Z,86.63
2018-08-22T00:17:10.027Z,86.82
2018-08-22T00:18:10.027Z,86.72
2018-08-22T00:19:10.027Z,86.54
2018-08-22T00:20:10.026Z,86.44
2018-08-22T00:21:10.033Z,86.44
2018-08-22T00:22:10.028Z,86.72
2018-08-22T00:23:10.028Z,86.72
2018-08-22T00:24:10.031Z,86.54
2018-08-22T00:25:10.029Z,86.44
2018-08-22T00:26:10.031Z,86.72
2018-08-22T00:27:10.031Z,86.54
2018-08-22T00:28:10.034Z,86.54
2018-08-22T00:29:10.097Z,86.54
2018-08-22T00:30:10.034Z,86.25
2018-08-22T00:31:10.034Z,86.44
2018-08-22T00:32:10.034Z,86.72
2018-08-22T00:33:10.034Z,86.54
2018-08-22T00:34:10.035Z,86.54
2018-08-22T00:35:10.034Z,86.44
2018-08-22T00:36:10.035Z,86.34
2018-08-22T00:37:10.038Z,86.63
2018-08-22T00:38:10.040Z,86.54
2018-08-22T00:39:10.037Z,86.54
2018-08-22T00:40:10.041Z,86.54
2018-08-22T00:41:10.037Z,86.54
2018-08-22T00:42:10.038Z,86.34
2018-08-22T00:43:10.042Z,86.72
2018-08-22T00:44:10.039Z,86.25
2018-08-22T00:45:10.041Z,86.82
2018-08-22T00:46:10.041Z,86.25
2018-08-22T00:47:10.039Z,86.30
2018-08-22T00:48:10.041Z,86.34
2018-08-22T00:49:10.043Z,86.30
2018-08-22T00:50:10.043Z,86.54
2018-08-22T00:51:10.044Z,86.44
2018-08-22T00:52:10.044Z,86.44
2018-08-22T00:53:10.043Z,86.44
2018-08-22T00:54:10.047Z,86.34
2018-08-22T00:55:10.050Z,86.49
2018-08-22T00:56:10.048Z,86.88
2018-08-22T00:57:10.046Z,86.97
2018-08-22T00:58:10.048Z,87.21
2018-08-22T00:59:10.046Z,87.16
2018-08-22T01:00:10.045Z,87.07
2018-08-22T01:01:10.047Z,87.16
2018-08-22T01:02:10.049Z,86.78
2018-08-22T01:03:10.049Z,87.07
2018-08-22T01:04:10.047Z,87.16
2018-08-22T01:05:10.049Z,87.26
2018-08-22T01:06:10.051Z,86.97
2018-08-22T01:07:10.048Z,87.16
2018-08-22T01:08:10.049Z,87.16
2018-08-22T01:09:10.049Z,87.55
2018-08-22T01:10:10.052Z,87.55
2018-08-22T01:11:10.053Z,87.26
2018-08-22T01:12:10.050Z,87.07
2018-08-22T01:13:10.052Z,87.07
2018-08-22T01:14:10.050Z,86.97
2018-08-22T01:15:10.051Z,86.97
2018-08-22T01:16:10.053Z,87.45
2018-08-22T01:17:10.052Z,87.26
2018-08-22T01:18:10.052Z,87.74
2018-08-22T01:19:10.051Z,87.84
2018-08-22T01:20:10.052Z,87.93
2018-08-22T01:21:10.055Z,87.45
2018-08-22T01:22:10.054Z,87.84
2018-08-22T01:23:10.053Z,88.02
2018-08-22T01:24:10.054Z,87.45
2018-08-22T01:25:10.055Z,87.93
2018-08-22T01:26:10.055Z,87.64
2018-08-22T01:27:10.054Z,87.84
2018-08-22T01:28:10.059Z,87.74
2018-08-22T01:29:10.053Z,87.84
2018-08-22T01:30:10.061Z,87.93
2018-08-22T01:31:10.061Z,87.64
2018-08-22T01:32:10.056Z,87.84
2018-08-22T01:33:10.055Z,88.02
2018-08-22T01:34:10.056Z,88.02
2018-08-22T01:35:10.054Z,88.70
2018-08-22T01:36:10.055Z,88.70
2018-08-22T01:37:10.057Z,88.70
2018-08-22T01:38:10.067Z,88.70
2018-08-22T01:39:10.057Z,88.41
2018-08-22T01:40:10.056Z,88.79
2018-08-22T01:41:10.058Z,87.84
2018-08-22T01:42:10.057Z,87.79
2018-08-22T01:43:10.056Z,88.08
2018-08-22T01:44:10.058Z,87.79
2018-08-22T01:45:10.057Z,88.02
2018-08-22T01:46:10.057Z,87.88
2018-08-22T01:47:10.059Z,88.02
2018-08-22T01:48:10.057Z,87.88
2018-08-22T01:49:10.057Z,88.65
2018-08-22T01:50:10.058Z,88.84
2018-08-22T01:51:10.056Z,88.84
2018-08-22T01:52:10.058Z,88.56
2018-08-22T01:53:10.059Z,88.56
2018-08-22T01:54:10.062Z,88.37
2018-08-22T01:55:10.058Z,88.17
2018-08-22T01:56:10.059Z,88.46
2018-08-22T01:57:10.060Z,88.37
2018-08-22T01:58:10.067Z,88.37
2018-08-22T01:59:10.057Z,88.17
2018-08-22T02:00:10.064Z,88.17
2018-08-22T02:01:10.059Z,88.37
2018-08-22T02:02:10.060Z,88.37
2018-08-22T02:03:10.088Z,88.17
2018-08-22T02:04:10.058Z,88.37
2018-08-22T02:05:10.060Z,88.37
2018-08-22T02:06:10.063Z,88.84
2018-08-22T02:07:10.059Z,88.46
2018-08-22T02:08:10.058Z,88.84
2018-08-22T02:09:10.060Z,88.84
2018-08-22T02:10:10.060Z,88.84
2018-08-22T02:11:10.059Z,88.94
2018-08-22T02:12:10.057Z,88.94
2018-08-22T02:13:10.059Z,88.65
2018-08-22T02:14:10.059Z,88.65
2018-08-22T02:15:10.059Z,88.94
2018-08-22T02:16:10.061Z,88.46
2018-08-22T02:17:10.060Z,88.17
2018-08-22T02:18:10.063Z,88.37
2018-08-22T02:19:10.065Z,88.84
2018-08-22T02:20:10.059Z,88.65
2018-08-22T02:21:10.059Z,88.56
2018-08-22T02:22:10.060Z,88.65
2018-08-22T02:23:10.058Z,88.84
2018-08-22T02:24:10.060Z,88.17
2018-08-22T02:25:10.097Z,88.17
2018-08-22T02:26:10.059Z,88.37
2018-08-22T02:27:10.063Z,88.37
2018-08-22T02:28:10.077Z,88.37
2018-08-22T02:29:10.059Z,88.17
2018-08-22T02:30:10.059Z,88.17
2018-08-22T02:31:10.059Z,88.84
2018-08-22T02:32:10.061Z,88.75
2018-08-22T02:33:10.060Z,88.84
2018-08-22T02:34:10.059Z,88.75
2018-08-22T02:35:10.073Z,88.99
2018-08-22T02:36:10.059Z,89.23
2018-08-22T02:37:10.065Z,89.13
2018-08-22T02:38:10.060Z,89.09
2018-08-22T02:39:10.058Z,89.04
2018-08-22T02:40:10.058Z,89.04
2018-08-22T02:41:10.058Z,88.84
2018-08-22T02:42:10.130Z,88.80
2018-08-22T02:43:10.063Z,88.80
2018-08-22T02:44:10.059Z,88.99
2018-08-22T02:45:10.058Z,88.99
2018-08-22T02:46:10.058Z,88.99
2018-08-22T02:47:10.057Z,88.70
2018-08-22T02:48:10.057Z,89.37
2018-08-22T02:49:10.056Z,88.90
2018-08-22T02:50:10.057Z,89.66
2018-08-22T02:51:10.057Z,89.57
2018-08-22T02:52:10.055Z,89.47
2018-08-22T02:53:10.055Z,89.47
2018-08-22T02:54:10.056Z,89.47
2018-08-22T02:55:10.056Z,89.28
2018-08-22T02:56:10.059Z,89.09
2018-08-22T02:57:10.058Z,89.37
2018-08-22T02:58:10.056Z,89.47
2018-08-22T02:59:10.054Z,89.28
2018-08-22T03:00:10.054Z,89.57
2018-08-22T03:01:10.054Z,88.99
2018-08-22T03:02:10.055Z,88.90
2018-08-22T03:03:10.053Z,88.99
2018-08-22T03:04:10.054Z,88.99
2018-08-22T03:05:10.054Z,89.28
2018-08-22T03:06:10.056Z,88.99
2018-08-22T03:07:10.058Z,88.90
2018-08-22T03:08:10.056Z,88.90
2018-08-22T03:09:10.052Z,89.09
2018-08-22T03:10:10.059Z,89.09
2018-08-22T03:11:10.054Z,88.99
2018-08-22T03:12:10.051Z,88.99
2018-08-22T03:13:10.052Z,88.90
2018-08-22T03:14:10.051Z,89.18
2018-08-22T03:15:10.052Z,88.99
2018-08-22T03:16:10.095Z,88.99
2018-08-22T03:17:10.054Z,89.57
2018-08-22T03:18:38.019Z,89.37
2018-08-22T03:19:10.050Z,89.47
2018-08-22T03:20:10.049Z,89.57
2018-08-22T03:21:10.051Z,89.57
2018-08-22T03:22:10.049Z,89.47
2018-08-22T03:23:10.049Z,89.57
2018-08-22T03:24:10.052Z,89.09
2018-08-22T03:25:10.048Z,89.37
2018-08-22T03:26:10.092Z,89.47
2018-08-22T03:27:10.048Z,89.28
2018-08-22T03:28:10.047Z,88.99
2018-08-22T03:29:10.048Z,89.57
2018-08-22T03:30:10.047Z,89.66
2018-08-22T03:31:10.055Z,89.66
2018-08-22T03:32:10.059Z,89.57
2018-08-22T03:33:10.047Z,89.57
2018-08-22T03:34:10.046Z,88.99
2018-08-22T03:35:10.045Z,89.37
2018-08-22T03:36:10.046Z,89.18
2018-08-22T03:37:10.043Z,89.47
2018-08-22T03:38:10.045Z,89.37
2018-08-22T03:39:10.043Z,89.18
2018-08-22T03:40:10.045Z,89.18
2018-08-22T03:41:10.043Z,89.18
2018-08-22T03:42:10.043Z,89.57
2018-08-22T03:43:10.043Z,89.57
2018-08-22T03:44:10.042Z,89.47
2018-08-22T03:45:10.041Z,89.47
2018-08-22T03:46:10.041Z,89.37
2018-08-22T03:47:10.046Z,89.18
2018-08-22T03:48:10.046Z,89.47
2018-08-22T03:49:10.041Z,89.47
2018-08-22T03:50:10.039Z,89.28
2018-08-22T03:51:10.045Z,89.28
2018-08-22T03:52:10.039Z,89.47
2018-08-22T03:53:10.038Z,89.57
2018-08-22T03:54:10.038Z,89.37
2018-08-22T03:55:10.038Z,89.18
2018-08-22T03:56:10.037Z,89.47
2018-08-22T03:57:10.040Z,89.47
2018-08-22T03:58:10.036Z,89.57
2018-08-22T03:59:10.036Z,89.76
2018-08-22T04:00:10.040Z,90.05
2018-08-22T04:01:10.038Z,89.47
2018-08-22T04:02:10.037Z,90.05
2018-08-22T04:03:10.042Z,90.05
2018-08-22T04:04:10.035Z,90.23
2018-08-22T04:05:10.033Z,89.47
2018-08-22T04:06:10.038Z,89.95
2018-08-22T04:07:10.034Z,89.95
2018-08-22T04:08:10.033Z,89.95
2018-08-22T04:09:10.036Z,89.37
2018-08-22T04:10:10.034Z,89.47
2018-08-22T04:11:10.031Z,89.37
2018-08-22T04:12:10.031Z,89.47
2018-08-22T04:13:10.031Z,89.37
2018-08-22T04:14:10.035Z,89.18
2018-08-22T04:15:10.030Z,89.57
2018-08-22T04:16:10.029Z,88.99
2018-08-22T04:17:10.031Z,89.18
2018-08-22T04:18:10.035Z,89.18
2018-08-22T04:19:10.028Z,89.18
2018-08-22T04:20:10.027Z,89.37
2018-08-22T04:21:10.033Z,89.66
2018-08-22T04:22:10.028Z,89.28
2018-08-22T04:23:10.029Z,89.47
2018-08-22T04:24:10.026Z,89.47
2018-08-22T04:25:10.027Z,89.47
2018-08-22T04:26:10.027Z,89.57
2018-08-22T04:27:10.024Z,89.47
2018-08-22T04:28:10.028Z,89.47
2018-08-22T04:29:10.024Z,89.47
2018-08-22T04:30:10.024Z,89.47
2018-08-22T04:31:10.023Z,89.57
2018-08-22T04:32:10.023Z,89.57
2018-08-22T04:33:10.022Z,89.57
2018-08-22T04:34:10.022Z,89.47
2018-08-22T04:35:10.021Z,88.99
2018-08-22T04:36:10.021Z,89.28
2018-08-22T04:37:10.021Z,89.47
2018-08-22T04:38:11.261Z,89.47
2018-08-22T04:39:10.020Z,89.57
2018-08-22T04:40:10.019Z,89.47
2018-08-22T04:41:10.020Z,89.57
2018-08-22T04:42:10.019Z,89.47
2018-08-22T04:43:10.017Z,89.47
2018-08-22T04:44:10.018Z,89.47
2018-08-22T04:45:10.017Z,89.09
2018-08-22T04:46:10.017Z,89.57
2018-08-22T04:47:10.018Z,89.28
2018-08-22T04:48:10.067Z,89.37
2018-08-22T04:49:10.017Z,89.28
2018-08-22T04:50:10.016Z,89.18
2018-08-22T04:51:10.014Z,88.42
2018-08-22T04:52:10.015Z,88.51
2018-08-22T04:53:10.013Z,88.32
2018-08-22T04:54:10.014Z,87.88
2018-08-22T04:55:10.012Z,87.60
2018-08-22T04:56:10.012Z,87.98
2018-08-22T04:57:10.011Z,87.02
2018-08-22T04:58:10.023Z,87.02
2018-08-22T04:59:10.012Z,86.45
2018-08-22T05:00:10.010Z,86.25
2018-08-22T05:01:10.019Z,86.16
2018-08-22T05:02:10.014Z,86.01
2018-08-22T05:03:10.010Z,85.63
2018-08-22T05:04:10.011Z,85.34
2018-08-22T05:05:10.011Z,85.05
2018-08-22T05:06:10.013Z,85.05
2018-08-22T05:07:10.011Z,84.95
2018-08-22T05:08:10.009Z,85.25
2018-08-22T05:09:10.012Z,85.05
2018-08-22T05:10:10.009Z,85.39
2018-08-22T05:11:10.012Z,85.82
2018-08-22T05:12:10.009Z,85.72
2018-08-22T05:13:10.013Z,85.82
2018-08-22T05:14:10.046Z,85.78
2018-08-22T05:15:10.011Z,86.01
2018-08-22T05:16:10.010Z,86.11
2018-08-22T05:17:10.009Z,85.72
2018-08-22T05:18:10.010Z,85.63
2018-08-22T05:19:10.010Z,85.92
2018-08-22T05:20:10.009Z,85.63
2018-08-22T05:21:10.010Z,85.82
2018-08-22T05:22:10.010Z,85.72
2018-08-22T05:23:10.012Z,85.82
2018-08-22T05:24:10.013Z,85.86
2018-08-22T05:25:10.013Z,85.82
2018-08-22T05:26:10.014Z,86.11
2018-08-22T05:27:10.013Z,86.34
2018-08-22T05:28:10.012Z,86.05
2018-08-22T05:29:10.010Z,85.86
2018-08-22T05:30:10.014Z,86.25
2018-08-22T05:31:10.011Z,86.05
2018-08-22T05:32:10.012Z,86.15
2018-08-22T05:33:10.013Z,85.96
2018-08-22T05:34:10.013Z,86.34
2018-08-22T05:35:10.012Z,85.71
2018-08-22T05:36:10.017Z,85.91
2018-08-22T05:37:10.014Z,85.33
2018-08-22T05:38:10.015Z,85.57
2018-08-22T05:39:10.014Z,84.99
2018-08-22T05:40:10.016Z,83.78
2018-08-22T05:41:10.015Z,82.82
2018-08-22T05:42:10.017Z,82.24
2018-08-22T05:43:10.017Z,82.05
2018-08-22T05:44:10.018Z,83.01
2018-08-22T05:45:10.038Z,83.69
2018-08-22T05:46:10.022Z,84.12
2018-08-22T05:47:10.021Z,83.84
2018-08-22T05:48:10.021Z,84.41
2018-08-22T05:49:10.040Z,84.41
2018-08-22T05:50:10.023Z,84.31
2018-08-22T05:51:10.025Z,84.70
2018-08-22T05:52:10.036Z,84.99
2018-08-22T05:53:10.027Z,85.08
2018-08-22T05:54:10.027Z,85.18
2018-08-22T05:55:10.028Z,85.28
2018-08-22T05:56:10.028Z,85.66
2018-08-22T05:57:10.029Z,85.47
2018-08-22T05:58:10.062Z,85.28
2018-08-22T05:59:10.031Z,85.28
2018-08-22T06:00:10.032Z,85.85
2018-08-22T06:01:10.033Z,85.85
2018-08-22T06:02:10.038Z,85.18
2018-08-22T06:03:10.042Z,85.95
2018-08-22T06:04:10.036Z,85.75
2018-08-22T06:05:10.038Z,85.85
2018-08-22T06:06:10.038Z,85.75
2018-08-22T06:07:10.040Z,85.85
2018-08-22T06:08:10.040Z,85.85
2018-08-22T06:09:10.102Z,85.95
2018-08-22T06:10:10.051Z,85.95
2018-08-22T06:11:10.041Z,85.85
2018-08-22T06:12:10.044Z,86.05
2018-08-22T06:13:10.048Z,85.75
2018-08-22T06:14:10.047Z,85.28
2018-08-22T06:15:10.046Z,85.18
2018-08-22T06:16:10.048Z,85.37
2018-08-22T06:17:10.050Z,85.08
2018-08-22T06:18:10.055Z,85.95
2018-08-22T06:19:10.052Z,85.95
2018-08-22T06:20:10.052Z,85.75
2018-08-22T06:21:10.056Z,85.95
2018-08-22T06:22:10.053Z,85.66
2018-08-22T06:23:10.058Z,85.57
2018-08-22T06:24:10.055Z,85.75
2018-08-22T06:25:10.056Z,85.37
2018-08-22T06:26:10.060Z,85.66
2018-08-22T06:27:10.064Z,85.95
2018-08-22T06:28:10.060Z,86.24
2018-08-22T06:29:10.065Z,86.24
2018-08-22T06:30:10.061Z,85.71
2018-08-22T06:31:10.061Z,85.80
2018-08-22T06:32:10.063Z,85.99
2018-08-22T06:33:10.068Z,85.71
2018-08-22T06:34:10.139Z,85.80
2018-08-22T06:35:10.068Z,85.80
2018-08-22T06:36:10.070Z,85.61
2018-08-22T06:37:10.069Z,85.99
2018-08-22T06:38:10.069Z,85.80
2018-08-22T06:39:10.097Z,85.99
2018-08-22T06:40:10.072Z,85.99
2018-08-22T06:41:10.086Z,86.09
2018-08-22T06:42:10.078Z,85.89
2018-08-22T06:43:10.075Z,85.51
2018-08-22T06:44:10.086Z,85.22
2018-08-22T06:45:10.092Z,85.71
2018-08-22T06:46:10.078Z,85.89
2018-08-22T06:47:10.080Z,85.99
2018-08-22T06:48:10.080Z,85.80
2018-08-22T06:49:10.124Z,85.71
2018-08-22T06:50:10.098Z,85.80
2018-08-22T06:51:10.086Z,85.80
2018-08-22T06:52:10.087Z,85.41
2018-08-22T06:53:10.086Z,85.41
2018-08-22T06:54:10.107Z,85.13
2018-08-22T06:55:10.117Z,85.13
2018-08-22T06:56:10.089Z,85.13
2018-08-22T06:57:10.124Z,84.84
2018-08-22T06:58:10.092Z,84.94
2018-08-22T06:59:10.102Z,84.84
2018-08-22T07:00:10.093Z,84.64
2018-08-22T07:01:10.095Z,84.64
2018-08-22T07:02:10.097Z,84.88
2018-08-22T07:03:10.101Z,84.50
2018-08-22T07:04:10.096Z,84.69
2018-08-22T07:05:10.099Z,84.11
2018-08-22T07:06:10.101Z,83.92
2018-08-22T07:07:10.119Z,84.30
2018-08-22T07:08:10.208Z,83.53
2018-08-22T07:09:10.105Z,83.73
2018-08-22T07:10:10.108Z,83.63
2018-08-22T07:11:10.114Z,83.44
2018-08-22T07:12:10.108Z,83.44
2018-08-22T07:13:10.109Z,83.15
2018-08-22T07:14:10.297Z,83.15
2018-08-22T07:15:10.124Z,83.25
2018-08-22T07:16:10.112Z,83.34
2018-08-22T07:17:10.116Z,83.25
2018-08-22T07:18:10.118Z,83.25
2018-08-22T07:19:10.116Z,83.06
2018-08-22T07:20:10.118Z,82.90
2018-08-22T07:21:10.156Z,82.61
2018-08-22T07:22:10.121Z,82.71
2018-08-22T07:23:10.122Z,82.90
2018-08-22T07:24:10.127Z,82.52
2018-08-22T07:25:10.126Z,82.61
2018-08-22T07:26:10.136Z,82.61
2018-08-22T07:27:10.134Z,82.71
2018-08-22T07:28:10.128Z,82.90
2018-08-22T07:29:10.131Z,83.00
2018-08-22T07:30:10.224Z,82.23
2018-08-22T07:31:10.136Z,82.32
2018-08-22T07:32:10.133Z,82.42
2018-08-22T07:33:10.135Z,82.04
2018-08-22T07:34:10.138Z,81.98
2018-08-22T07:35:10.138Z,82.27
2018-08-22T07:36:10.144Z,82.46
2018-08-22T07:37:10.147Z,81.70
2018-08-22T07:38:10.142Z,81.50
2018-08-22T07:39:10.145Z,81.40
2018-08-22T07:40:10.146Z,81.70
2018-08-22T07:41:10.148Z,81.79
2018-08-22T07:42:10.280Z,81.30
2018-08-22T07:43:10.167Z,81.02
2018-08-22T07:44:10.168Z,80.92
2018-08-22T07:45:10.155Z,80.68
2018-08-22T07:46:10.159Z,80.68
2018-08-22T07:47:10.188Z,80.00
2018-08-22T07:48:10.159Z,80.10
2018-08-22T07:49:10.164Z,80.29
2018-08-22T07:50:10.221Z,80.58
2018-08-22T07:51:10.167Z,80.38
2018-08-22T07:52:10.166Z,80.38
2018-08-22T07:53:10.177Z,79.71
2018-08-22T07:54:10.217Z,79.81
2018-08-22T07:55:10.173Z,80.04
2018-08-22T07:56:10.179Z,79.90
2018-08-22T07:57:10.176Z,79.36
2018-08-22T07:58:10.178Z,79.66
2018-08-22T07:59:10.181Z,79.36
2018-08-22T08:00:10.264Z,79.17
2018-08-22T08:01:10.183Z,79.46
2018-08-22T08:02:10.186Z,79.08
2018-08-22T08:03:10.192Z,78.69
2018-08-22T08:04:10.192Z,78.88
2018-08-22T08:05:10.196Z,78.79
2018-08-22T08:06:10.242Z,78.31
2018-08-22T08:07:10.195Z,78.21
2018-08-22T08:08:10.198Z,77.83
2018-08-22T08:09:10.201Z,78.15
2018-08-22T08:10:10.206Z,77.28
2018-08-22T08:11:10.203Z,77.58
2018-08-22T08:12:10.211Z,77.28
2018-08-22T08:13:10.209Z,77.09
2018-08-22T08:14:10.211Z,77.28
2018-08-22T08:15:10.212Z,76.51
2018-08-22T08:16:10.215Z,76.42
2018-08-22T08:17:10.239Z,76.26
2018-08-22T08:18:10.236Z,76.07
2018-08-22T08:19:10.224Z,75.78
2018-08-22T08:20:10.225Z,75.88
2018-08-22T08:21:10.226Z,75.43
2018-08-22T08:22:10.231Z,75.43
2018-08-22T08:23:10.232Z,75.43
2018-08-22T08:24:10.236Z,74.66
2018-08-22T08:25:10.236Z,75.34
2018-08-22T08:26:10.258Z,74.66
2018-08-22T08:27:10.241Z,74.95
2018-08-22T08:28:10.248Z,74.57
2018-08-22T08:29:10.248Z,74.66
2018-08-22T08:30:10.250Z,73.89
2018-08-22T08:31:10.255Z,74.95
2018-08-22T08:32:10.267Z,74.57
2018-08-22T08:33:10.257Z,74.18
2018-08-22T08:34:10.260Z,74.37
2018-08-22T08:35:10.264Z,73.73
2018-08-22T08:36:10.269Z,73.83
2018-08-22T08:37:10.267Z,73.60
2018-08-22T08:38:10.271Z,73.99
2018-08-22T08:39:10.272Z,73.54
2018-08-22T08:40:10.276Z,73.15
2018-08-22T08:41:10.327Z,73.25
2018-08-22T08:42:10.300Z,72.58
2018-08-22T08:43:10.507Z,72.58
2018-08-22T08:44:10.286Z,71.90
2018-08-22T08:45:10.288Z,71.80
2018-08-22T08:46:10.299Z,71.70
2018-08-22T08:47:10.293Z,71.42
2018-08-22T08:48:10.298Z,71.61
2018-08-22T08:49:10.300Z,71.55
2018-08-22T08:50:10.304Z,71.36
2018-08-22T08:51:10.322Z,70.87
2018-08-22T08:52:10.363Z,70.78
2018-08-22T08:53:10.310Z,70.97
2018-08-22T08:54:10.318Z,71.16
2018-08-22T08:55:10.316Z,70.39
2018-08-22T08:56:10.323Z,70.87
2018-08-22T08:57:10.349Z,70.87
2018-08-22T08:58:10.326Z,70.97
2018-08-22T08:59:10.328Z,70.39
2018-08-22T09:00:10.331Z,70.97
2018-08-22T09:01:10.392Z,70.78
2018-08-22T09:02:10.341Z,70.62
2018-08-22T09:03:10.338Z,70.04
2018-08-22T09:04:10.366Z,70.04
2018-08-22T09:05:10.347Z,70.04
2018-08-22T09:06:10.355Z,69.30
2018-08-22T09:07:10.357Z,69.56
2018-08-22T09:08:10.357Z,68.62
2018-08-22T09:09:10.372Z,68.24
2018-08-22T09:10:10.363Z,68.14
2018-08-22T09:11:10.402Z,67.94
2018-08-22T09:12:10.376Z,67.49
2018-08-22T09:13:10.372Z,66.72
2018-08-22T09:14:10.375Z,66.43
2018-08-22T09:15:10.380Z,65.47
2018-08-22T09:16:10.386Z,65.17
2018-08-22T09:17:10.414Z,65.40
2018-08-22T09:18:10.390Z,64.72
2018-08-22T09:19:10.391Z,64.62
2018-08-22T09:20:10.395Z,64.14
2018-08-22T09:21:10.460Z,63.46
2018-08-22T09:22:10.402Z,63.21
2018-08-22T09:23:10.409Z,63.11
2018-08-22T09:24:10.473Z,62.63
2018-08-22T09:25:10.426Z,63.01
2018-08-22T09:26:10.417Z,62.04
2018-08-22T09:27:10.422Z,61.79
2018-08-22T09:28:10.501Z,61.88
2018-08-22T09:29:10.428Z,62.07
2018-08-22T09:30:10.440Z,62.17
2018-08-22T09:31:10.502Z,61.69
2018-08-22T09:32:10.439Z,61.88
2018-08-22T09:33:10.446Z,61.98
2018-08-22T09:34:10.450Z,61.49
2018-08-22T09:35:10.453Z,62.46
2018-08-22T09:36:10.465Z,61.30
2018-08-22T09:37:10.462Z,61.30
2018-08-22T09:38:10.462Z,61.33
2018-08-22T09:39:10.466Z,60.55
2018-08-22T09:40:10.530Z,61.04
2018-08-22T09:41:10.476Z,60.55
2018-08-22T09:42:10.479Z,60.65
2018-08-22T09:43:10.485Z,60.17
2018-08-22T09:44:10.486Z,59.59
2018-08-22T09:45:10.488Z,59.81
2018-08-22T09:46:10.493Z,60.20
2018-08-22T09:47:10.518Z,60.39
2018-08-22T09:48:10.501Z,59.33
2018-08-22T09:49:10.509Z,59.42
2018-08-22T09:50:10.510Z,59.42
2018-08-22T09:51:10.513Z,59.13
2018-08-22T09:52:10.517Z,59.23
2018-08-22T09:53:10.521Z,59.42
2018-08-22T09:54:10.535Z,59.52
2018-08-22T09:55:10.529Z,59.45
2018-08-22T09:56:10.535Z,59.33
2018-08-22T09:57:10.537Z,59.42
2018-08-22T09:58:10.564Z,59.42
2018-08-22T09:59:10.548Z,59.42
2018-08-22T10:00:10.558Z,58.87
2018-08-22T10:01:10.561Z,59.33
2018-08-22T10:02:10.559Z,59.33
2018-08-22T10:03:10.565Z,59.23
2018-08-22T10:04:10.573Z,58.97
2018-08-22T10:05:10.575Z,59.45
2018-08-22T10:06:10.579Z,59.36
2018-08-22T10:07:10.658Z,59.26
2018-08-22T10:08:10.586Z,58.87
2018-08-22T10:09:10.592Z,58.77
2018-08-22T10:10:10.596Z,59.26
2018-08-22T10:11:10.598Z,58.29
2018-08-22T10:12:10.604Z,58.48
2018-08-22T10:13:10.608Z,58.67
2018-08-22T10:14:10.616Z,57.80
2018-08-22T10:15:10.614Z,58.09
2018-08-22T10:16:10.623Z,58.09
2018-08-22T10:17:10.644Z,58.09
2018-08-22T10:18:10.629Z,58.29
2018-08-22T10:19:10.640Z,57.61
2018-08-22T10:20:10.642Z,57.90
2018-08-22T10:21:10.647Z,57.61
2018-08-22T10:22:10.646Z,57.12
2018-08-22T10:23:10.651Z,57.22
2018-08-22T10:24:10.655Z,57.51
2018-08-22T10:25:10.661Z,57.22
2018-08-22T10:26:10.665Z,57.22
2018-08-22T10:27:10.693Z,56.93
2018-08-22T10:28:10.673Z,57.12
2018-08-22T10:29:10.677Z,57.83
2018-08-22T10:30:10.685Z,57.64
2018-08-22T10:31:10.684Z,57.15
2018-08-22T10:32:10.690Z,57.54
2018-08-22T10:33:10.695Z,56.86
2018-08-22T10:34:10.702Z,56.57
2018-08-22T10:35:10.712Z,56.76
2018-08-22T10:36:10.707Z,56.76
2018-08-22T10:37:10.713Z,56.67
2018-08-22T10:38:10.725Z,56.67
2018-08-22T10:39:10.719Z,56.86
2018-08-22T10:40:10.724Z,56.37
2018-08-22T10:41:10.729Z,56.37
2018-08-22T10:42:10.737Z,56.67
2018-08-22T10:43:10.742Z,55.99
2018-08-22T10:44:10.741Z,55.50
2018-08-22T10:45:10.748Z,56.01
2018-08-22T10:46:10.755Z,55.73
2018-08-22T10:47:10.779Z,56.01
2018-08-22T10:48:10.763Z,56.01
2018-08-22T10:49:10.764Z,55.82
2018-08-22T10:50:10.769Z,56.50
2018-08-22T10:51:10.776Z,56.50
2018-08-22T10:52:10.781Z,56.30
2018-08-22T10:53:10.785Z,55.82
2018-08-22T10:54:10.812Z,56.11
2018-08-22T10:55:10.791Z,56.30
2018-08-22T10:56:10.796Z,55.63
2018-08-22T10:57:10.802Z,56.01
2018-08-22T10:58:10.808Z,56.21
2018-08-22T10:59:10.809Z,55.85
2018-08-22T11:00:10.815Z,55.82
2018-08-22T11:01:10.820Z,55.75
2018-08-22T11:02:10.824Z,55.55
2018-08-22T11:03:10.830Z,55.55
2018-08-22T11:04:10.833Z,55.75
2018-08-22T11:05:10.867Z,55.07
2018-08-22T11:06:10.842Z,55.65
2018-08-22T11:07:10.848Z,55.17
2018-08-22T11:08:11.000Z,55.07
2018-08-22T11:09:10.859Z,55.65
2018-08-22T11:10:10.866Z,54.78
2018-08-22T11:11:10.864Z,54.39
2018-08-22T11:12:10.870Z,54.39
2018-08-22T11:13:10.874Z,54.20
2018-08-22T11:14:10.881Z,53.91
2018-08-22T11:15:10.882Z,54.22
2018-08-22T11:16:10.931Z,54.42
2018-08-22T11:17:10.893Z,54.22
2018-08-22T11:18:10.899Z,54.00
2018-08-22T11:19:11.004Z,53.35
2018-08-22T11:20:10.907Z,52.96
2018-08-22T11:21:10.914Z,53.64
2018-08-22T11:22:10.921Z,54.03
2018-08-22T11:23:10.925Z,53.64
2018-08-22T11:24:10.927Z,52.96
2018-08-22T11:25:10.932Z,52.96
2018-08-22T11:26:10.939Z,53.25
2018-08-22T11:27:10.942Z,53.16
2018-08-22T11:28:10.945Z,53.06
2018-08-22T11:29:10.992Z,52.86
2018-08-22T11:30:10.955Z,52.96
2018-08-22T11:31:10.961Z,52.28
2018-08-22T11:32:10.965Z,52.19
2018-08-22T11:33:10.969Z,52.28
2018-08-22T11:34:10.974Z,52.28
2018-08-22T11:35:10.996Z,52.28
2018-08-22T11:36:10.987Z,52.47
2018-08-22T11:37:10.997Z,52.28
2018-08-22T11:38:10.995Z,52.09
2018-08-22T11:39:11.184Z,51.21
2018-08-22T11:40:11.002Z,50.92
2018-08-22T11:41:11.014Z,50.82
2018-08-22T11:42:11.012Z,50.24
2018-08-22T11:43:11.016Z,50.14
2018-08-22T11:44:11.025Z,49.85
2018-08-22T11:45:11.028Z,50.14
2018-08-22T11:46:11.032Z,48.88
2018-08-22T11:47:11.038Z,48.80
2018-08-22T11:48:11.044Z,48.41
2018-08-22T11:49:11.046Z,48.71
2018-08-22T11:50:11.050Z,47.74
2018-08-22T11:51:11.055Z,47.74
2018-08-22T11:52:11.066Z,47.83
2018-08-22T11:53:11.069Z,47.83
2018-08-22T11:54:11.071Z,47.74
2018-08-22T11:55:11.074Z,47.93
2018-08-22T11:56:11.105Z,47.64
2018-08-22T11:57:11.085Z,47.74
2018-08-22T11:58:11.090Z,47.54
2018-08-22T11:59:11.094Z,47.44
2018-08-22T12:00:11.099Z,47.54
2018-08-22T12:01:11.106Z,47.83
2018-08-22T12:02:11.117Z,47.93
2018-08-22T12:03:11.120Z,47.86
2018-08-22T12:04:11.118Z,46.78
2018-08-22T12:05:11.123Z,46.40
2018-08-22T12:06:11.130Z,46.78
2018-08-22T12:07:11.141Z,46.30
2018-08-22T12:08:11.144Z,46.59
2018-08-22T12:09:11.187Z,46.69
2018-08-22T12:10:12.124Z,46.30
2018-08-22T12:11:11.160Z,46.30
2018-08-22T12:12:11.229Z,46.01
2018-08-22T12:13:11.397Z,45.52
2018-08-22T12:14:11.425Z,45.72
2018-08-22T12:15:11.173Z,45.42
2018-08-22T12:16:12.166Z,45.14
2018-08-22T12:17:11.346Z,45.74
2018-08-22T12:18:11.190Z,45.84
2018-08-22T12:19:11.515Z,45.74
2018-08-22T12:20:11.401Z,45.15
2018-08-22T12:21:12.147Z,45.15
2018-08-22T12:22:11.412Z,45.06
2018-08-22T12:23:11.472Z,44.57
2018-08-22T12:24:12.216Z,44.86
2018-08-22T12:25:11.226Z,44.96
2018-08-22T12:26:12.164Z,45.54
2018-08-22T12:27:11.344Z,44.96
2018-08-22T12:28:11.240Z,44.76
2018-08-22T12:29:11.243Z,44.67
2018-08-22T12:30:11.251Z,44.76
2018-08-22T12:31:11.313Z,44.48
2018-08-22T12:32:11.259Z,44.38
2018-08-22T12:33:11.267Z,44.10
2018-08-22T12:34:11.270Z,44.18
2018-08-22T12:35:11.274Z,44.28
2018-08-22T12:36:11.281Z,44.28
2018-08-22T12:37:11.285Z,44.30
2018-08-22T12:38:11.290Z,44.49
2018-08-22T12:39:11.295Z,44.20
2018-08-22T12:40:11.300Z,44.49
2018-08-22T12:41:11.306Z,44.89
2018-08-22T12:42:11.312Z,44.20
2018-08-22T12:43:11.319Z,44.79
2018-08-22T12:44:11.320Z,44.30
2018-08-22T12:45:11.327Z,44.10
2018-08-22T12:46:11.337Z,44.01
2018-08-22T12:47:11.335Z,43.74
2018-08-22T12:48:11.343Z,44.71
2018-08-22T12:49:11.349Z,44.13
2018-08-22T12:50:11.367Z,44.20
2018-08-22T12:51:11.372Z,44.62
2018-08-22T12:52:11.363Z,44.01